createdAt,value
2018-01-18T00:02:17.090Z,96537.41
2018-01-18T00:04:46.798Z,96538.65
2018-01-18T00:07:14.849Z,96538.65
2018-01-18T00:09:44.990Z,96536.92
2018-01-18T00:12:12.970Z,96548.17
2018-01-18T00:14:41.208Z,96552.79
2018-01-18T00:17:09.094Z,96547.79
2018-01-18T00:19:38.868Z,96549.91
2018-01-18T00:22:07.045Z,96550.34
2018-01-18T00:24:35.189Z,96538.65
2018-01-18T00:27:03.269Z,96540.30
2018-01-18T00:29:31.449Z,96536.50
2018-01-18T00:32:01.074Z,96526.25
2018-01-18T00:34:29.828Z,96529.19
2018-01-18T00:36:58.954Z,96523.02
2018-01-18T00:39:27.026Z,96522.60
2018-01-18T00:41:58.668Z,96520.16
2018-01-18T00:44:26.640Z,96520.24
2018-01-18T00:46:56.622Z,96520.72
2018-01-18T00:49:24.532Z,96523.66
2018-01-18T00:51:52.614Z,96529.09
2018-01-18T00:54:20.544Z,96529.95
2018-01-18T00:56:49.463Z,96527.80
2018-01-18T00:59:17.394Z,96523.98
2018-01-18T01:01:45.321Z,96524.28
2018-01-18T01:04:13.198Z,96536.25
2018-01-18T01:06:41.266Z,96542.36
2018-01-18T01:09:11.730Z,96542.73
2018-01-18T01:11:39.768Z,96540.53
2018-01-18T01:14:07.810Z,96539.27
2018-01-18T01:16:35.808Z,96538.66
2018-01-18T01:19:03.883Z,96546.91
2018-01-18T01:21:31.879Z,96533.93
2018-01-18T01:23:59.940Z,96538.02
2018-01-18T01:26:27.814Z,96538.45
2018-01-18T01:28:55.785Z,96538.41
2018-01-18T01:31:23.653Z,96536.19
2018-01-18T01:33:53.463Z,96532.00
2018-01-18T01:36:21.645Z,96525.17
2018-01-18T01:38:49.717Z,96527.24
2018-01-18T01:41:17.794Z,96525.08
2018-01-18T01:43:45.867Z,96528.39
2018-01-18T01:46:16.254Z,96521.33
2018-01-18T01:48:44.371Z,96516.33
2018-01-18T01:51:15.119Z,96520.52
2018-01-18T01:53:45.734Z,96521.75
2018-01-18T01:56:18.287Z,96521.61
2018-01-18T01:58:46.395Z,96515.70
2018-01-18T02:01:14.465Z,96513.92
2018-01-18T02:03:42.437Z,96502.28
2018-01-18T02:06:10.414Z,96503.06
2018-01-18T02:08:41.732Z,96493.16
2018-01-18T02:11:09.836Z,96484.41
2018-01-18T02:13:37.828Z,96491.97
2018-01-18T02:16:05.894Z,96488.74
2018-01-18T02:18:33.762Z,96493.02
2018-01-18T02:21:01.687Z,96485.63
2018-01-18T02:23:29.804Z,96493.60
2018-01-18T02:25:57.873Z,96484.04
2018-01-18T02:28:25.736Z,96482.36
2018-01-18T02:30:55.210Z,96474.81
2018-01-18T02:33:23.236Z,96474.33
2018-01-18T02:35:51.201Z,96481.00
2018-01-18T02:38:19.912Z,96474.33
2018-01-18T02:40:48.173Z,96482.20
2018-01-18T02:43:16.957Z,96467.70
2018-01-18T02:45:46.577Z,96467.75
2018-01-18T02:48:19.382Z,96463.61
2018-01-18T02:50:47.525Z,96462.41
2018-01-18T02:53:15.503Z,96462.41
2018-01-18T02:55:47.462Z,96454.95
2018-01-18T02:58:18.055Z,96455.44
2018-01-18T03:00:46.167Z,96445.92
2018-01-18T03:03:18.754Z,96445.54
2018-01-18T03:05:47.503Z,96439.30
2018-01-18T03:08:15.511Z,96439.30
2018-01-18T03:10:45.095Z,96443.09
2018-01-18T03:13:13.093Z,96444.81
2018-01-18T03:15:41.057Z,96443.14
2018-01-18T03:18:10.881Z,96446.98
2018-01-18T03:20:39.783Z,96436.59
2018-01-18T03:23:07.850Z,96427.46
2018-01-18T03:25:39.325Z,96428.80
2018-01-18T03:28:07.305Z,96423.80
2018-01-18T03:30:35.354Z,96419.71
2018-01-18T03:33:03.424Z,96424.28
2018-01-18T03:35:31.414Z,96413.04
2018-01-18T03:37:59.471Z,96414.33
2018-01-18T03:40:28.929Z,96423.56
2018-01-18T03:42:56.947Z,96413.17
2018-01-18T03:45:29.734Z,96409.42
2018-01-18T03:47:57.652Z,96400.25
2018-01-18T03:50:25.677Z,96399.47
2018-01-18T03:52:53.745Z,96398.30
2018-01-18T03:55:21.929Z,96399.55
2018-01-18T03:57:50.007Z,96385.03
2018-01-18T04:00:18.283Z,96391.33
2018-01-18T04:02:46.270Z,96379.31
2018-01-18T04:05:14.314Z,96376.46
2018-01-18T04:07:42.531Z,96373.19
2018-01-18T04:10:10.585Z,96364.91
2018-01-18T04:12:39.581Z,96364.14
2018-01-18T04:15:07.650Z,96357.07
2018-01-18T04:17:37.405Z,96359.62
2018-01-18T04:20:05.441Z,96352.64
2018-01-18T04:22:33.515Z,96340.61
2018-01-18T04:25:01.590Z,96328.19
2018-01-18T04:27:31.557Z,96333.27
2018-01-18T04:30:01.238Z,96329.95
2018-01-18T04:32:29.298Z,96339.48
2018-01-18T04:34:57.267Z,96334.91
2018-01-18T04:37:25.203Z,96341.30
2018-01-18T04:39:54.929Z,96346.38
2018-01-18T04:42:25.545Z,96344.44
2018-01-18T04:44:54.170Z,96339.00
2018-01-18T04:47:23.637Z,96334.17
2018-01-18T04:49:51.756Z,96343.79
2018-01-18T04:52:21.058Z,96340.04
2018-01-18T04:54:50.665Z,96336.38
2018-01-18T04:57:20.389Z,96329.69
2018-01-18T04:59:48.355Z,96328.55
2018-01-18T05:02:16.525Z,96322.77
2018-01-18T05:04:46.119Z,96326.92
2018-01-18T05:07:14.211Z,96308.62
2018-01-18T05:09:43.022Z,96306.52
2018-01-18T05:12:13.551Z,96300.26
2018-01-18T05:14:46.390Z,96288.53
2018-01-18T05:17:14.470Z,96297.37
2018-01-18T05:19:42.478Z,96284.86
2018-01-18T05:22:10.449Z,96276.19
2018-01-18T05:24:38.319Z,96280.84
2018-01-18T05:27:06.486Z,96277.94
2018-01-18T05:29:36.451Z,96271.80
2018-01-18T05:32:04.486Z,96271.45
2018-01-18T05:34:32.566Z,96280.33
2018-01-18T05:37:00.491Z,96270.84
2018-01-18T05:39:28.704Z,96267.08
2018-01-18T05:41:56.675Z,96269.12
2018-01-18T05:44:24.545Z,96252.22
2018-01-18T05:46:52.521Z,96253.94
2018-01-18T05:49:20.697Z,96246.94
2018-01-18T05:51:48.570Z,96235.68
2018-01-18T05:54:16.440Z,96227.78
2018-01-18T05:56:44.620Z,96220.63
2018-01-18T05:59:12.697Z,96212.69
2018-01-18T06:01:40.864Z,96206.82
2018-01-18T06:04:10.561Z,96205.14
2018-01-18T06:06:43.087Z,96192.95
2018-01-18T06:09:10.974Z,96195.52
2018-01-18T06:11:41.537Z,96199.67
2018-01-18T06:14:09.525Z,96192.16
2018-01-18T06:16:37.604Z,96192.94
2018-01-18T06:19:05.581Z,96178.72
2018-01-18T06:21:33.513Z,96182.93
2018-01-18T06:24:01.508Z,96174.61
2018-01-18T06:26:29.449Z,96166.23
2018-01-18T06:29:00.218Z,96159.59
2018-01-18T06:31:28.307Z,96144.97
2018-01-18T06:33:56.181Z,96139.14
2018-01-18T06:36:27.113Z,96127.88
2018-01-18T06:38:56.844Z,96119.59
2018-01-18T06:41:25.005Z,96117.09
2018-01-18T06:43:53.843Z,96119.23
2018-01-18T06:46:21.973Z,96120.06
2018-01-18T06:48:50.364Z,96111.73
2018-01-18T06:51:19.350Z,96113.80
2018-01-18T06:53:47.274Z,96103.36
2018-01-18T06:56:15.298Z,96100.86
2018-01-18T06:58:48.055Z,96099.22
2018-01-18T07:01:18.736Z,96095.03
2018-01-18T07:03:48.437Z,96091.74
2018-01-18T07:06:16.497Z,96083.81
2018-01-18T07:08:45.553Z,96084.59
2018-01-18T07:13:49.431Z,96078.34
2018-01-18T07:16:17.494Z,96070.44
2018-01-18T07:18:46.494Z,96070.91
2018-01-18T07:21:15.076Z,96067.55
2018-01-18T07:23:48.978Z,96055.03
2018-01-18T07:26:17.060Z,96055.03
2018-01-18T07:28:44.984Z,96055.45
2018-01-18T07:31:15.669Z,96048.77
2018-01-18T07:33:45.350Z,96035.51
2018-01-18T07:36:13.786Z,96027.54
2018-01-18T07:38:41.836Z,96024.21
2018-01-18T07:41:09.808Z,96009.23
2018-01-18T07:43:37.987Z,96003.83
2018-01-18T07:46:06.059Z,95995.53
2018-01-18T07:48:35.696Z,95990.17
2018-01-18T07:51:08.074Z,95983.09
2018-01-18T07:53:39.346Z,95982.30
2018-01-18T07:56:07.474Z,95968.11
2018-01-18T07:58:35.400Z,95969.03
2018-01-18T08:01:03.394Z,95961.16
2018-01-18T08:28:17.492Z,95904.75
2018-01-18T08:30:45.526Z,95902.27
2018-01-18T08:33:13.656Z,95900.28
2018-01-18T08:35:41.776Z,95901.59
2018-01-18T08:38:09.860Z,95900.00
2018-01-18T08:40:37.928Z,95895.91
2018-01-18T08:43:09.708Z,95887.98
2018-01-18T08:45:39.594Z,95885.97
2018-01-18T08:48:07.782Z,95879.77
2018-01-18T08:50:35.854Z,95863.11
2018-01-18T08:53:04.650Z,95851.89
2018-01-18T08:55:32.793Z,95842.30
2018-01-18T08:58:00.887Z,95840.25
2018-01-18T09:00:28.870Z,95835.29
2018-01-18T09:02:56.843Z,95820.81
2018-01-18T09:05:24.823Z,95811.29
2018-01-18T09:07:52.800Z,95792.63
2018-01-18T09:10:20.767Z,95801.02
2018-01-18T09:12:48.610Z,95778.13
2018-01-18T09:15:16.611Z,95784.55
2018-01-18T09:17:44.643Z,95793.03
2018-01-18T09:20:12.622Z,95784.80
2018-01-18T09:22:41.282Z,95779.12
2018-01-18T09:25:11.463Z,95785.94
2018-01-18T09:27:39.399Z,95785.69
2018-01-18T09:30:07.604Z,95791.36
2018-01-18T09:32:35.584Z,95765.98
2018-01-18T09:37:46.816Z,95767.66
2018-01-18T09:40:17.598Z,95751.91
2018-01-18T09:42:45.689Z,95747.84
2018-01-18T09:45:15.208Z,95750.75
2018-01-18T09:47:43.279Z,95760.09
2018-01-18T09:50:11.356Z,95757.20
2018-01-18T09:52:39.424Z,95763.08
2018-01-18T09:55:08.029Z,95752.63
2018-01-18T09:57:35.940Z,95756.00
2018-01-18T10:00:03.983Z,95736.77
2018-01-18T10:02:32.032Z,95762.81
2018-01-18T10:10:06.999Z,95738.80
2018-01-18T10:12:35.175Z,95745.59
2018-01-18T10:15:03.018Z,95719.22
2018-01-18T10:17:31.018Z,95721.40
2018-01-18T10:19:59.095Z,95717.66
2018-01-18T10:22:27.051Z,95687.50
2018-01-18T10:24:56.073Z,95672.91
2018-01-18T10:27:28.669Z,95676.77
2018-01-18T10:29:56.735Z,95689.39
2018-01-18T10:32:24.658Z,95670.58
2018-01-18T10:34:52.504Z,95676.48
2018-01-18T10:37:20.533Z,95666.82
2018-01-18T10:39:48.604Z,95659.34
2018-01-18T10:42:17.203Z,95640.13
2018-01-18T10:44:45.270Z,95653.59
2018-01-18T10:47:14.905Z,95642.38
2018-01-18T10:49:43.257Z,95655.41
2018-01-18T10:54:45.457Z,95655.47
2018-01-18T10:57:13.325Z,95666.40
2018-01-18T10:59:41.287Z,95654.67
2018-01-18T11:02:09.344Z,95639.62
2018-01-18T11:04:37.647Z,95641.34
2018-01-18T11:07:05.733Z,95619.96
2018-01-18T11:09:35.403Z,95633.84
2018-01-18T11:12:03.606Z,95613.31
2018-01-18T11:14:33.351Z,95618.38
2018-01-18T11:17:01.408Z,95608.30
2018-01-18T11:19:29.378Z,95591.95
2018-01-18T11:21:57.650Z,95596.17
2018-01-18T11:27:19.484Z,95579.84
2018-01-18T11:29:49.235Z,95577.73
2018-01-18T11:34:53.349Z,95572.27
2018-01-18T11:37:21.690Z,95573.13
2018-01-18T11:39:49.807Z,95555.05
2018-01-18T11:42:19.334Z,95558.42
2018-01-18T11:44:47.255Z,95560.13
2018-01-18T11:47:19.869Z,95552.53
2018-01-18T11:49:49.857Z,95523.56
2018-01-18T11:52:19.377Z,95542.47
2018-01-18T11:54:47.363Z,95528.60
2018-01-18T11:59:55.595Z,95519.37
2018-01-18T12:02:23.657Z,95530.73
2018-01-18T12:04:51.551Z,95515.59
2018-01-18T12:07:19.701Z,95502.56
2018-01-18T12:09:47.799Z,95534.08
2018-01-18T12:12:19.668Z,95519.37
2018-01-18T12:14:47.697Z,95487.44
2018-01-18T12:17:15.675Z,95484.50
2018-01-18T12:19:43.651Z,95468.09
2018-01-18T12:22:11.622Z,95471.86
2018-01-18T12:24:41.441Z,95476.88
2018-01-18T12:27:09.508Z,95470.98
2018-01-18T12:29:37.565Z,95449.98
2018-01-18T12:32:05.554Z,95445.33
2018-01-18T12:34:33.246Z,95443.66
2018-01-18T12:37:01.931Z,95465.50
2018-01-18T12:39:32.513Z,95452.88
2018-01-18T12:42:02.149Z,95461.29
2018-01-18T12:44:30.142Z,95446.96
2018-01-18T12:46:58.313Z,95428.43
2018-01-18T12:49:27.300Z,95420.84
2018-01-18T12:51:56.842Z,95448.19
2018-01-18T12:54:24.878Z,95417.46
2018-01-18T12:56:54.905Z,95435.98
2018-01-18T12:59:31.071Z,95448.98
2018-01-18T13:02:00.964Z,95439.72
2018-01-18T13:04:29.324Z,95459.11
2018-01-18T13:06:57.942Z,95436.38
2018-01-18T13:09:32.231Z,95420.42
2018-01-18T13:12:00.861Z,95414.94
2018-01-18T13:14:28.931Z,95412.44
2018-01-18T13:16:57.925Z,95398.92
2018-01-18T13:19:25.955Z,95425.41
2018-01-18T13:21:57.242Z,95404.34
2018-01-18T13:24:26.150Z,95412.30
2018-01-18T13:26:54.230Z,95408.88
2018-01-18T13:29:24.124Z,95424.02
2018-01-18T13:31:52.120Z,95409.73
2018-01-18T13:34:20.043Z,95412.67
2018-01-18T13:36:47.954Z,95429.92
2018-01-18T13:39:15.927Z,95424.88
2018-01-18T13:41:44.080Z,95445.51
2018-01-18T13:44:12.096Z,95429.13
2018-01-18T13:46:40.254Z,95440.49
2018-01-18T13:49:08.807Z,95434.60
2018-01-18T13:51:36.905Z,95423.25
2018-01-18T13:54:04.894Z,95425.78
2018-01-18T13:56:34.554Z,95415.20
2018-01-18T13:59:04.517Z,95425.30
2018-01-18T14:01:32.479Z,95438.31
2018-01-18T14:04:00.451Z,95400.42
2018-01-18T14:06:28.340Z,95417.27
2018-01-18T14:08:56.297Z,95408.81
2018-01-18T14:11:24.876Z,95412.13
2018-01-18T14:13:52.745Z,95412.09
2018-01-18T14:16:21.134Z,95419.23
2018-01-18T14:18:49.719Z,95415.02
2018-01-18T14:21:20.338Z,95395.67
2018-01-18T14:23:49.626Z,95390.64
2018-01-18T14:26:20.606Z,95406.25
2018-01-18T14:28:49.284Z,95407.58
2018-01-18T14:31:20.318Z,95408.38
2018-01-18T14:33:50.044Z,95405.86
2018-01-18T14:36:18.032Z,95383.48
2018-01-18T14:38:46.136Z,95391.06
2018-01-18T14:41:16.116Z,95374.64
2018-01-18T14:43:45.067Z,95383.94
2018-01-18T14:46:13.308Z,95377.56
2018-01-18T14:48:43.907Z,95389.28
2018-01-18T14:51:16.530Z,95400.66
2018-01-18T14:53:49.192Z,95382.99
2018-01-18T14:56:17.166Z,95359.39
2018-01-18T14:58:45.316Z,95375.37
2018-01-18T15:01:13.306Z,95378.26
2018-01-18T15:03:41.476Z,95351.67
2018-01-18T15:06:09.552Z,95367.63
2018-01-18T15:08:37.584Z,95379.42
2018-01-18T15:11:07.754Z,95383.75
2018-01-18T15:13:35.633Z,95387.56
2018-01-18T15:16:04.316Z,95382.14
2018-01-18T15:18:32.389Z,95380.47
2018-01-18T15:21:00.402Z,95377.52
2018-01-18T15:23:28.431Z,95375.02
2018-01-18T15:25:59.431Z,95375.04
2018-01-18T15:28:27.448Z,95382.20
2018-01-18T15:30:55.418Z,95386.01
2018-01-18T15:33:23.390Z,95371.22
2018-01-18T15:35:52.470Z,95373.36
2018-01-18T15:38:24.045Z,95388.89
2018-01-18T15:40:52.134Z,95399.45
2018-01-18T15:43:20.090Z,95395.23
2018-01-18T15:45:48.072Z,95410.78
2018-01-18T15:48:22.427Z,95403.98
2018-01-18T15:50:52.216Z,95417.88
2018-01-18T15:53:20.298Z,95417.04
2018-01-18T15:55:48.462Z,95404.37
2018-01-18T15:58:16.740Z,95412.84
2018-01-18T16:00:46.549Z,95440.22
2018-01-18T16:03:19.671Z,95426.33
2018-01-18T16:05:48.335Z,95426.33
2018-01-18T16:08:17.421Z,95442.87
2018-01-18T16:10:45.400Z,95434.14
2018-01-18T16:13:15.143Z,95435.00
2018-01-18T16:18:35.089Z,95442.98
2018-01-18T16:21:05.754Z,95447.61
2018-01-18T16:23:33.807Z,95463.59
2018-01-18T16:26:01.880Z,95466.14
2018-01-18T16:28:29.856Z,95455.65
2018-01-18T16:30:58.030Z,95480.52
2018-01-18T16:33:26.009Z,95483.48
2018-01-18T16:35:56.726Z,95487.28
2018-01-18T16:38:24.660Z,95495.73
2018-01-18T16:40:52.629Z,95509.21
2018-01-18T16:43:20.763Z,95524.80
2018-01-18T16:45:48.886Z,95529.02
2018-01-18T16:48:16.725Z,95538.72
2018-01-18T16:50:44.784Z,95542.48
2018-01-18T16:53:20.147Z,95555.95
2018-01-18T16:55:48.192Z,95562.25
2018-01-18T16:58:17.231Z,95567.70
2018-01-18T17:00:46.382Z,95567.72
2018-01-18T17:03:15.628Z,95566.03
2018-01-18T17:05:43.593Z,95558.48
2018-01-18T17:08:11.569Z,95562.25
2018-01-18T17:10:39.620Z,95547.53
2018-01-18T17:13:07.696Z,95549.63
2018-01-18T17:15:35.586Z,95542.91
2018-01-18T17:18:06.419Z,95546.25
2018-01-18T17:20:34.373Z,95542.07
2018-01-18T17:23:02.419Z,95539.97
2018-01-18T17:25:30.514Z,95529.03
2018-01-18T17:28:00.031Z,95529.44
2018-01-18T17:30:29.590Z,95522.30
2018-01-18T17:32:57.895Z,95526.51
2018-01-18T17:35:25.903Z,95532.78
2018-01-18T17:37:54.162Z,95547.07
2018-01-18T17:40:24.395Z,95563.44
2018-01-18T17:42:54.741Z,95558.83
2018-01-18T17:45:24.997Z,95565.11
2018-01-18T17:47:52.921Z,95570.58
2018-01-18T17:50:20.906Z,95570.16
2018-01-18T17:52:48.865Z,95583.15
2018-01-18T17:55:16.940Z,95591.55
2018-01-18T17:57:46.654Z,95610.83
2018-01-18T18:00:14.740Z,95622.16
2018-01-18T18:02:42.811Z,95629.70
2018-01-18T18:05:10.734Z,95633.88
2018-01-18T18:07:41.226Z,95643.96
2018-01-18T18:10:09.226Z,95652.32
2018-01-18T18:12:37.253Z,95645.58
2018-01-18T18:15:05.362Z,95663.20
2018-01-18T18:17:33.241Z,95643.86
2018-01-18T18:20:01.175Z,95657.68
2018-01-18T18:22:29.149Z,95657.20
2018-01-18T18:24:57.132Z,95653.39
2018-01-18T18:27:26.040Z,95658.42
2018-01-18T18:29:53.902Z,95653.75
2018-01-18T18:32:21.641Z,95654.55
2018-01-18T18:34:50.226Z,95659.14
2018-01-18T18:37:18.213Z,95641.47
2018-01-18T18:39:47.129Z,95639.77
2018-01-18T18:42:15.286Z,95651.08
2018-01-18T18:44:43.559Z,95672.52
2018-01-18T18:47:11.529Z,95644.42
2018-01-18T18:49:41.529Z,95662.09
2018-01-18T18:52:11.401Z,95657.92
2018-01-18T18:54:39.528Z,95645.75
2018-01-18T18:57:07.541Z,95657.89
2018-01-18T18:59:35.683Z,95648.25
2018-01-18T19:02:03.869Z,95675.50
2018-01-18T19:04:31.892Z,95669.20
2018-01-18T19:06:59.914Z,95672.14
2018-01-18T19:09:28.005Z,95683.03
2018-01-18T19:11:57.709Z,95699.34
2018-01-18T19:14:27.421Z,95678.32
2018-01-18T19:16:56.421Z,95689.59
2018-01-18T19:19:24.490Z,95673.71
2018-01-18T19:21:55.274Z,95698.45
2018-01-18T19:24:23.295Z,95698.00
2018-01-18T19:26:51.423Z,95693.87
2018-01-18T19:29:20.947Z,95693.09
2018-01-18T19:31:53.259Z,95677.14
2018-01-18T19:34:21.564Z,95683.78
2018-01-18T19:36:50.053Z,95694.70
2018-01-18T19:39:20.644Z,95676.23
2018-01-18T19:41:49.096Z,95678.33
2018-01-18T19:46:58.988Z,95694.63
2018-01-18T19:49:27.190Z,95705.11
2018-01-18T19:51:58.983Z,95702.52
2018-01-18T19:54:30.880Z,95705.06
2018-01-18T19:57:01.064Z,95715.11
2018-01-18T19:59:29.653Z,95719.27
2018-01-18T20:01:58.086Z,95720.16
2018-01-18T20:04:27.299Z,95705.42
2018-01-18T20:07:02.425Z,95715.08
2018-01-18T20:09:35.556Z,95723.41
2018-01-18T20:12:05.179Z,95723.80
2018-01-18T20:14:34.723Z,95739.70
2018-01-18T20:17:06.390Z,95742.16
2018-01-18T20:19:35.878Z,95735.44
2018-01-18T20:22:08.360Z,95724.95
2018-01-18T20:24:37.481Z,95726.95
2018-01-18T20:27:13.374Z,95743.26
2018-01-18T20:29:43.847Z,95738.63
2018-01-18T20:32:13.135Z,95715.56
2018-01-18T20:34:42.172Z,95738.16
2018-01-18T20:37:12.233Z,95764.52
2018-01-18T20:39:41.298Z,95760.29
2018-01-18T20:42:10.518Z,95744.34
2018-01-18T20:44:38.930Z,95749.82
2018-01-18T20:47:08.134Z,95779.11
2018-01-18T20:49:36.971Z,95779.50
2018-01-18T20:52:09.513Z,95778.63
2018-01-18T20:54:38.168Z,95781.13
2018-01-18T20:57:10.206Z,95777.34
2018-01-18T20:59:40.116Z,95784.02
2018-01-18T21:02:10.682Z,95775.23
2018-01-18T21:04:39.206Z,95777.75
2018-01-18T21:07:08.789Z,95781.06
2018-01-18T21:09:37.833Z,95764.74
2018-01-18T21:12:08.800Z,95760.08
2018-01-18T21:14:38.073Z,95766.39
2018-01-18T21:17:07.286Z,95762.98
2018-01-18T21:19:35.547Z,95785.16
2018-01-18T21:22:06.172Z,95771.37
2018-01-18T21:24:34.312Z,95770.55
2018-01-18T21:27:03.459Z,95780.19
2018-01-18T21:29:31.670Z,95767.61
2018-01-18T21:32:00.645Z,95752.97
2018-01-18T21:34:29.499Z,95724.48
2018-01-18T21:36:58.457Z,95737.87
2018-01-18T21:39:28.434Z,95749.16
2018-01-18T21:41:56.712Z,95770.11
2018-01-18T21:44:24.885Z,95780.97
2018-01-18T21:46:55.519Z,95788.50
2018-01-18T21:49:24.491Z,95797.30
2018-01-18T21:51:53.596Z,95804.44
2018-01-18T21:54:21.708Z,95803.19
2018-01-18T21:56:49.828Z,95809.87
2018-01-18T21:59:19.553Z,95809.47
2018-01-18T22:01:47.735Z,95791.88
2018-01-18T22:04:18.407Z,95794.78
2018-01-18T22:06:48.235Z,95796.04
2018-01-18T22:09:16.467Z,95795.20
2018-01-18T22:11:44.531Z,95803.59
2018-01-18T22:14:12.826Z,95808.66
2018-01-18T22:16:40.953Z,95801.13
2018-01-18T22:19:09.090Z,95801.55
2018-01-18T22:21:38.839Z,95780.59
2018-01-18T22:24:07.629Z,95770.97
2018-01-18T22:26:35.467Z,95781.02
2018-01-18T22:29:03.355Z,95785.63
2018-01-18T22:31:31.276Z,95791.05
2018-01-18T22:33:59.405Z,95794.00
2018-01-18T22:36:31.053Z,95788.13
2018-01-18T22:38:58.929Z,95782.26
2018-01-18T22:41:31.297Z,95776.00
2018-01-18T22:43:59.369Z,95767.63
2018-01-18T22:46:28.082Z,95774.74
2018-01-18T22:48:56.058Z,95767.22
2018-01-18T22:51:24.097Z,95739.16
2018-01-18T22:53:54.970Z,95750.88
2018-01-18T22:56:26.181Z,95767.20
2018-01-18T22:58:56.921Z,95758.41
2018-01-18T23:01:27.649Z,95802.83
2018-01-18T23:03:58.289Z,95824.19
2018-01-18T23:06:26.351Z,95808.30
2018-01-18T23:08:54.449Z,95791.09
2018-01-18T23:11:22.511Z,95756.34
2018-01-18T23:13:50.490Z,95740.83
2018-01-18T23:16:18.473Z,95765.53
2018-01-18T23:18:46.429Z,95813.70
2018-01-18T23:21:14.825Z,95834.66
2018-01-18T23:23:42.998Z,95842.63
2018-01-18T23:26:12.579Z,95822.92
2018-01-18T23:28:41.428Z,95810.78
2018-01-18T23:31:10.231Z,95824.64
2018-01-18T23:33:38.259Z,95846.42
2018-01-18T23:36:06.436Z,95851.50
2018-01-18T23:38:34.327Z,95834.34
2018-01-18T23:41:02.383Z,95827.62
2018-01-18T23:43:30.353Z,95818.01
2018-01-18T23:46:00.187Z,95797.05
2018-01-18T23:48:30.712Z,95764.78
2018-01-18T23:50:58.779Z,95756.84
2018-01-18T23:53:26.760Z,95773.98
2018-01-18T23:55:56.445Z,95789.48
2018-01-18T23:58:24.451Z,95786.97
